1885 NOT_NAMED (1885011S16075)


IBTrACS version v04r00. Visit IBTrACS website for data access.
Please direct all questions to the IBTrACS Q and A forum

Storm track - Intensity - Wind Radii - Intensity Data - Source Data - All data

Summary Information

Storm ID 1885011S16075
Start Jan 11 00Z
End Jan 18 00Z
ATCF IDs
Track status Best track data.

Storm track plot

Map of storm track

Intensity plots

No Intensity information for this storm


Radial wind information

No radial wind information for this storm


Position and Intensity Table

BASIN ISO_TIME_________ NATURE LAT LON
degrees north degrees east
SI 1885-01-11 00:00:00 TS -15.90 75.20
SI 03:00:00 TS -16.00 74.80
SI 06:00:00 TS -16.10 74.40
SI 09:00:00 TS -16.19 73.99
SI 12:00:00 TS -16.30 73.60
SI 15:00:00 TS -16.44 73.23
SI 18:00:00 TS -16.60 72.90
SI 21:00:00 TS -16.76 72.61
SI 1885-01-12 00:00:00 TS -16.90 72.30
SI 03:00:00 TS -17.00 71.91
SI 06:00:00 TS -17.10 71.50
SI 09:00:00 TS -17.24 71.15
SI 12:00:00 TS -17.40 70.80
SI 15:00:00 TS -17.54 70.40
SI 18:00:00 TS -17.70 70.00
SI 21:00:00 TS -17.90 69.65
SI 1885-01-13 00:00:00 TS -18.10 69.30
SI 03:00:00 TS -18.26 68.91
SI 06:00:00 TS -18.40 68.50
SI 09:00:00 TS -18.53 68.10
SI 12:00:00 TS -18.70 67.70
SI 15:00:00 TS -18.94 67.31
SI 18:00:00 TS -19.20 66.90
SI 21:00:00 TS -19.42 66.43
SI 1885-01-14 00:00:00 TS -19.60 66.00
SI 03:00:00 TS -19.71 65.72
SI 06:00:00 TS -19.80 65.50
SI 09:00:00 TS -19.90 65.25
SI 12:00:00 TS -20.00 65.00
SI 15:00:00 TS -20.10 64.75
SI 18:00:00 TS -20.20 64.50
SI 21:00:00 TS -20.29 64.27
SI 1885-01-15 00:00:00 TS -20.40 64.00
SI 03:00:00 TS -20.54 63.61
SI 06:00:00 TS -20.70 63.20
SI 09:00:00 TS -20.89 62.85
SI 12:00:00 TS -21.10 62.50
SI 15:00:00 TS -21.30 62.11
SI 18:00:00 TS -21.50 61.70
SI 21:00:00 TS -21.70 61.30
SI 1885-01-16 00:00:00 TS -21.90 60.90
SI 03:00:00 TS -22.11 60.50
SI 06:00:00 TS -22.30 60.10
SI 09:00:00 TS -22.46 59.70
SI 12:00:00 TS -22.60 59.30
SI 15:00:00 TS -22.74 58.90
SI 18:00:00 TS -22.90 58.50
SI 21:00:00 TS -23.09 58.11
SI 1885-01-17 00:00:00 TS -23.30 57.70
SI 03:00:00 TS -23.49 57.25
SI 06:00:00 TS -23.70 56.80
SI 09:00:00 TS -23.95 56.38
SI 12:00:00 TS -24.20 56.00
SI 15:00:00 TS -24.41 55.64
SI 18:00:00 TS -24.60 55.30
SI 21:00:00 TS -24.80 54.95
SI 1885-01-18 00:00:00 TS -25.00 54.60

Source Information

Agency Information
USA
TOKYO
CMA
HKO
NEWDELHI
REUNION
BOM
NADI
WELLINGTON
DS824 s_hem.dat:39:NOT NAMED
TD9636
TD9635
NEUMANN
MLC

All available IBTrACS Data

SEASON BASIN SUBBASIN ISO_TIME_________ NATURE LAT LON DIST2LAND LANDFALL IFLAG USA SSHS DS824 LAT DS824 LON DS824 STAGE STORM SPEED STORM DIR
Year degrees north degrees east km km 1 degrees north degrees east kts degrees
1885 SI MM 1885-01-11 00:00:00 TS -15.90 75.20 1902 1858 _________O____ -1 -15.90 75.20 TC 8 255
1885 SI MM 03:00:00 TS -16.00 74.80 1858 1814 _________P____ -1 -16.00 74.80 TC 8 255
1885 SI MM 06:00:00 TS -16.10 74.40 1814 1770 _________O____ -1 -16.10 74.40 TC 8 256
1885 SI MM 09:00:00 TS -16.19 73.99 1770 1726 _________P____ -1 -16.19 73.99 TC 8 255
1885 SI MM 12:00:00 TS -16.30 73.60 1726 1692 _________O____ -1 -16.30 73.60 TC 8 251
1885 SI MM 15:00:00 TS -16.44 73.23 1682 1644 _________P____ -1 -16.44 73.23 TC 7 246
1885 SI MM 18:00:00 TS -16.60 72.90 1644 1611 _________O____ -1 -16.60 72.90 TC 7 242
1885 SI MM 21:00:00 TS -16.76 72.61 1607 1574 _________P____ -1 -16.76 72.61 TC 6 242
1885 SI MM 1885-01-12 00:00:00 TS -16.90 72.30 1574 1530 _________O____ -1 -16.90 72.30 TC 7 250
1885 SI MM 03:00:00 TS -17.00 71.91 1530 1486 _________P____ -1 -17.00 71.91 TC 8 255
1885 SI MM 06:00:00 TS -17.10 71.50 1486 1452 _________O____ -1 -17.10 71.50 TC 8 252
1885 SI MM 09:00:00 TS -17.24 71.15 1442 1405 _________P____ -1 -17.24 71.15 TC 7 246
1885 SI MM 12:00:00 TS -17.40 70.80 1405 1361 _________O____ -1 -17.40 70.80 TC 8 247
1885 SI MM 15:00:00 TS -17.54 70.40 1361 1314 _________P____ -1 -17.54 70.40 TC 8 249
1885 SI MM 18:00:00 TS -17.70 70.00 1314 1278 _________O____ -1 -17.70 70.00 TC 8 243
1885 SI MM 21:00:00 TS -17.90 69.65 1268 1232 _________P____ -1 -17.90 69.65 TC 8 239
1885 SI MM 1885-01-13 00:00:00 TS -18.10 69.30 1232 1188 _________O____ -1 -18.10 69.30 TC 8 243
1885 SI MM 03:00:00 TS -18.26 68.91 1185 1142 _________P____ -1 -18.26 68.91 TC 8 248
1885 SI MM 06:00:00 TS -18.40 68.50 1142 1098 _________O____ -1 -18.40 68.50 TC 8 250
1885 SI MM 09:00:00 TS -18.53 68.10 1098 1052 _________P____ -1 -18.53 68.10 TC 8 248
1885 SI MM 12:00:00 TS -18.70 67.70 1052 1007 _________O____ -1 -18.70 67.70 TC 9 242
1885 SI MM 15:00:00 TS -18.94 67.31 1007 960 _________P____ -1 -18.94 67.31 TC 9 237
1885 SI MM 18:00:00 TS -19.20 66.90 960 915 _________O____ -1 -19.20 66.90 TC 10 240
1885 SI MM 21:00:00 TS -19.42 66.43 904 860 _________P____ -1 -19.42 66.43 TC 9 245
1885 SI MM 1885-01-14 00:00:00 TS -19.60 66.00 860 828 _________O____ -1 -19.60 66.00 TC 7 246
1885 SI MM 03:00:00 TS -19.71 65.72 828 806 _________P____ -1 -19.71 65.72 TC 5 247
1885 SI MM 06:00:00 TS -19.80 65.50 806 784 _________O____ -1 -19.80 65.50 TC 5 247
1885 SI MM 09:00:00 TS -19.90 65.25 773 752 _________P____ -1 -19.90 65.25 TC 5 247
1885 SI MM 12:00:00 TS -20.00 65.00 752 730 _________O____ -1 -20.00 65.00 TC 5 247
1885 SI MM 15:00:00 TS -20.10 64.75 720 698 _________P____ -1 -20.10 64.75 TC 5 247
1885 SI MM 18:00:00 TS -20.20 64.50 698 677 _________O____ -1 -20.20 64.50 TC 5 247
1885 SI MM 21:00:00 TS -20.29 64.27 677 646 _________P____ -1 -20.29 64.27 TC 5 247
1885 SI MM 1885-01-15 00:00:00 TS -20.40 64.00 646 604 _________O____ -1 -20.40 64.00 TC 7 249
1885 SI MM 03:00:00 TS -20.54 63.61 604 564 _________P____ -1 -20.54 63.61 TC 8 248
1885 SI MM 06:00:00 TS -20.70 63.20 564 533 _________O____ -1 -20.70 63.20 TC 8 243
1885 SI MM 09:00:00 TS -20.89 62.85 524 496 _________P____ -1 -20.89 62.85 TC 8 239
1885 SI MM 12:00:00 TS -21.10 62.50 496 460 _________O____ -1 -21.10 62.50 TC 8 240
1885 SI MM 15:00:00 TS -21.30 62.11 460 426 _________P____ -1 -21.30 62.11 TC 8 242
1885 SI MM 18:00:00 TS -21.50 61.70 426 395 _________O____ -1 -21.50 61.70 TC 9 242
1885 SI MM 21:00:00 TS -21.70 61.30 395 366 _________P____ -1 -21.70 61.30 TC 8 242
1885 SI MM 1885-01-16 00:00:00 TS -21.90 60.90 366 340 _________O____ -1 -21.90 60.90 TC 8 241
1885 SI MM 03:00:00 TS -22.11 60.50 340 319 _________P____ -1 -22.11 60.50 TC 8 242
1885 SI MM 06:00:00 TS -22.30 60.10 319 296 _________O____ -1 -22.30 60.10 TC 8 245
1885 SI MM 09:00:00 TS -22.46 59.70 304 287 _________P____ -1 -22.46 59.70 TC 8 248
1885 SI MM 12:00:00 TS -22.60 59.30 287 275 _________O____ -1 -22.60 59.30 TC 8 249
1885 SI MM 15:00:00 TS -22.74 58.90 275 273 _________P____ -1 -22.74 58.90 TC 8 248
1885 SI MM 18:00:00 TS -22.90 58.50 280 277 _________O____ -1 -22.90 58.50 TC 8 244
1885 SI MM 21:00:00 TS -23.09 58.11 293 292 _________P____ -1 -23.09 58.11 TC 8 241
1885 SI MM 1885-01-17 00:00:00 TS -23.30 57.70 296 286 _________O____ -1 -23.30 57.70 TC 9 243
1885 SI MM 03:00:00 TS -23.49 57.25 284 279 _________P____ -1 -23.49 57.25 TC 9 244
1885 SI MM 06:00:00 TS -23.70 56.80 285 280 _________O____ -1 -23.70 56.80 TC 9 240
1885 SI MM 09:00:00 TS -23.95 56.38 291 291 _________P____ -1 -23.95 56.38 TC 9 236
1885 SI MM 12:00:00 TS -24.20 56.00 315 314 _________O____ -1 -24.20 56.00 TC 8 236
1885 SI MM 15:00:00 TS -24.41 55.64 335 335 _________P____ -1 -24.41 55.64 TC 8 238
1885 SI MM 18:00:00 TS -24.60 55.30 359 359 _________O____ -1 -24.60 55.30 TC 7 238
1885 SI MM 21:00:00 TS -24.80 54.95 384 384 _________P____ -1 -24.80 54.95 TC 8 238
1885 SI MM 1885-01-18 00:00:00 TS -25.00 54.60 415 _________O____ -1 -25.00 54.60 TC 8 238